LJMB METAR and TAF | Updated Today

LJMB METAR

Maribor Airport

Observation time: 7 min. ago

LJMB 062000Z 01005KT CAVOK M04/M08 Q1038

Need help? Read our tutorial on how to read METARs or read the parsed version below.

Maribor Airport (LJMB) METAR

  • Weather conditions on Mon, 06 Feb 2023 20:00:00 +0000 (7 min. ago):
  • Present conditions: Dry
  • Clouds: Clear skies
  • Visibility: Greater than 10 km
  • Wind: 10 degrees at 5 knots
  • Temperature: -4 celsius
  • Dew point: -8 celsius
  • Pressure: 1038 millibars
  • Remarks: None


Useful to know...

LJMB TAF

Maribor Airport

TAF LJMB 061700Z 0618/0718 05005KT CAVOK
Observation time: 3:07 hr. ago
Need help? Read our tutorial on how to read TAFs or read the parsed version below.

Parsed version of TAF for Maribor Airport (LJMB)

  • From 06 February at 18:00 UTC, to day 07 of the month at 18:00 UTC
  • Visibility: Greater than 10 km
  • Wind: 50 degrees at 5